sensor_id;sensor_type;location;lat;lon;timestamp;pressure;altitude;pressure_sealevel;temperature;humidity
29359;BME280;16347;53.232;6.556;2022-07-29T00:01:54;101984.56;;;24.56;38.93
29359;BME280;16347;53.232;6.556;2022-07-29T00:04:22;101982.22;;;24.52;39.02
29359;BME280;16347;53.232;6.556;2022-07-29T00:06:50;101982.84;;;24.55;39.10
29359;BME280;16347;53.232;6.556;2022-07-29T00:09:18;101977.09;;;24.49;38.77
29359;BME280;16347;53.232;6.556;2022-07-29T00:11:47;101979.03;;;24.49;38.89
29359;BME280;16347;53.232;6.556;2022-07-29T00:14:15;101971.75;;;24.48;38.94
29359;BME280;16347;53.232;6.556;2022-07-29T00:16:44;101972.00;;;24.46;39.24
29359;BME280;16347;53.232;6.556;2022-07-29T00:19:14;101967.28;;;24.47;39.21
29359;BME280;16347;53.232;6.556;2022-07-29T00:21:46;101965.56;;;24.46;39.50
29359;BME280;16347;53.232;6.556;2022-07-29T00:24:18;101975.00;;;24.45;39.53
29359;BME280;16347;53.232;6.556;2022-07-29T00:26:49;101966.88;;;24.43;39.72
29359;BME280;16347;53.232;6.556;2022-07-29T00:29:21;101971.34;;;24.44;39.56
29359;BME280;16347;53.232;6.556;2022-07-29T00:32:02;101969.88;;;24.42;39.53
29359;BME280;16347;53.232;6.556;2022-07-29T00:34:34;101965.16;;;24.42;39.85
29359;BME280;16347;53.232;6.556;2022-07-29T00:37:21;101959.84;;;24.41;39.85
29359;BME280;16347;53.232;6.556;2022-07-29T00:39:52;101961.97;;;24.39;39.63
29359;BME280;16347;53.232;6.556;2022-07-29T00:42:23;101958.34;;;24.38;39.97
29359;BME280;16347;53.232;6.556;2022-07-29T00:44:58;101956.44;;;24.39;39.94
29359;BME280;16347;53.232;6.556;2022-07-29T00:47:29;101950.66;;;24.40;39.69
29359;BME280;16347;53.232;6.556;2022-07-29T00:50:01;101947.88;;;24.40;39.78
29359;BME280;16347;53.232;6.556;2022-07-29T00:52:36;101947.22;;;24.38;39.83
29359;BME280;16347;53.232;6.556;2022-07-29T00:55:08;101940.59;;;24.39;40.11
29359;BME280;16347;53.232;6.556;2022-07-29T00:57:41;101936.56;;;24.35;40.09
29359;BME280;16347;53.232;6.556;2022-07-29T01:00:18;101941.91;;;24.37;39.84
29359;BME280;16347;53.232;6.556;2022-07-29T01:02:49;101934.00;;;24.34;40.08
29359;BME280;16347;53.232;6.556;2022-07-29T01:05:26;101934.00;;;24.34;40.13
29359;BME280;16347;53.232;6.556;2022-07-29T01:08:19;101935.09;;;24.33;39.92
29359;BME280;16347;53.232;6.556;2022-07-29T01:10:51;101930.38;;;24.33;40.31
29359;BME280;16347;53.232;6.556;2022-07-29T01:13:23;101932.31;;;24.33;40.42
29359;BME280;16347;53.232;6.556;2022-07-29T01:15:59;101921.19;;;24.33;40.21
29359;BME280;16347;53.232;6.556;2022-07-29T01:18:31;101928.06;;;24.30;40.57
29359;BME280;16347;53.232;6.556;2022-07-29T01:21:27;101923.31;;;24.37;40.45
29359;BME280;16347;53.232;6.556;2022-07-29T01:24:17;101921.38;;;24.31;40.23
29359;BME280;16347;53.232;6.556;2022-07-29T01:26:52;101919.72;;;24.30;40.95
29359;BME280;16347;53.232;6.556;2022-07-29T01:29:28;101916.06;;;24.30;41.72
29359;BME280;16347;53.232;6.556;2022-07-29T01:32:07;101918.84;;;24.30;41.27
29359;BME280;16347;53.232;6.556;2022-07-29T01:34:59;101911.13;;;24.32;40.71
29359;BME280;16347;53.232;6.556;2022-07-29T01:37:35;101911.13;;;24.32;40.45
29359;BME280;16347;53.232;6.556;2022-07-29T01:40:11;101900.25;;;24.30;40.55
29359;BME280;16347;53.232;6.556;2022-07-29T01:42:43;101907.09;;;24.28;40.47
29359;BME280;16347;53.232;6.556;2022-07-29T01:45:17;101902.63;;;24.27;40.54
29359;BME280;16347;53.232;6.556;2022-07-29T01:47:53;101907.94;;;24.28;40.24
29359;BME280;16347;53.232;6.556;2022-07-29T01:50:28;101893.19;;;24.28;40.51
29359;BME280;16347;53.232;6.556;2022-07-29T01:52:59;101893.03;;;24.23;40.61
29359;BME280;16347;53.232;6.556;2022-07-29T01:55:32;101893.22;;;24.21;40.46
29359;BME280;16347;53.232;6.556;2022-07-29T01:58:03;101889.84;;;24.19;40.36
29359;BME280;16347;53.232;6.556;2022-07-29T02:00:34;101877.88;;;24.19;40.59
29359;BME280;16347;53.232;6.556;2022-07-29T02:03:07;101879.56;;;24.20;40.69
29359;BME280;16347;53.232;6.556;2022-07-29T02:05:35;101872.63;;;24.35;40.17
29359;BME280;16347;53.232;6.556;2022-07-29T02:08:07;101867.81;;;24.18;40.42
29359;BME280;16347;53.232;6.556;2022-07-29T02:10:38;101861.63;;;24.16;40.69
29359;BME280;16347;53.232;6.556;2022-07-29T02:13:09;101865.72;;;24.13;40.41
29359;BME280;16347;53.232;6.556;2022-07-29T02:15:41;101869.34;;;24.14;40.76
29359;BME280;16347;53.232;6.556;2022-07-29T02:18:14;101858.25;;;24.14;40.64
29359;BME280;16347;53.232;6.556;2022-07-29T02:20:45;101860.34;;;24.12;40.53
29359;BME280;16347;53.232;6.556;2022-07-29T02:23:20;101858.66;;;24.11;40.64
29359;BME280;16347;53.232;6.556;2022-07-29T02:25:49;101854.38;;;24.08;40.71
29359;BME280;16347;53.232;6.556;2022-07-29T02:28:20;101850.75;;;24.08;40.70
29359;BME280;16347;53.232;6.556;2022-07-29T02:30:52;101856.09;;;24.09;40.66
29359;BME280;16347;53.232;6.556;2022-07-29T02:33:21;101850.97;;;24.06;40.29
29359;BME280;16347;53.232;6.556;2022-07-29T02:35:52;101851.19;;;24.05;40.43
29359;BME280;16347;53.232;6.556;2022-07-29T02:38:23;101849.50;;;24.04;40.97
29359;BME280;16347;53.232;6.556;2022-07-29T02:41:13;101849.50;;;24.04;40.54
29359;BME280;16347;53.232;6.556;2022-07-29T02:43:43;101849.50;;;24.04;40.93
29359;BME280;16347;53.232;6.556;2022-07-29T02:46:16;101846.72;;;24.04;40.84
29359;BME280;16347;53.232;6.556;2022-07-29T02:48:58;101844.16;;;24.02;40.78
29359;BME280;16347;53.232;6.556;2022-07-29T02:51:29;101843.31;;;24.01;40.77
29359;BME280;16347;53.232;6.556;2022-07-29T02:54:11;101845.03;;;24.02;40.86
29359;BME280;16347;53.232;6.556;2022-07-29T02:56:43;101842.78;;;24.18;40.48
29359;BME280;16347;53.232;6.556;2022-07-29T02:59:16;101843.31;;;24.01;41.35
29359;BME280;16347;53.232;6.556;2022-07-29T03:01:52;101841.84;;;23.99;40.96
29359;BME280;16347;53.232;6.556;2022-07-29T03:04:24;101836.47;;;23.97;40.82
29359;BME280;16347;53.232;6.556;2022-07-29T03:06:56;101841.41;;;23.95;41.13
29359;BME280;16347;53.232;6.556;2022-07-29T03:09:27;101832.03;;;23.96;41.27
29359;BME280;16347;53.232;6.556;2022-07-29T03:11:57;101831.16;;;23.96;41.57
29359;BME280;16347;53.232;6.556;2022-07-29T03:14:25;101824.97;;;23.94;41.35
29359;BME280;16347;53.232;6.556;2022-07-29T03:16:55;101819.19;;;23.95;41.14
29359;BME280;16347;53.232;6.556;2022-07-29T03:19:24;101820.25;;;23.94;41.38
29359;BME280;16347;53.232;6.556;2022-07-29T03:21:56;101822.19;;;23.94;41.57
29359;BME280;16347;53.232;6.556;2022-07-29T03:24:29;101819.66;;;23.92;41.74
29359;BME280;16347;53.232;6.556;2022-07-29T03:26:58;101816.88;;;23.92;41.26
29359;BME280;16347;53.232;6.556;2022-07-29T03:29:26;101815.41;;;23.90;41.34
29359;BME280;16347;53.232;6.556;2022-07-29T03:32:03;101818.19;;;23.90;41.44
29359;BME280;16347;53.232;6.556;2022-07-29T03:34:35;101818.19;;;23.90;41.63
29359;BME280;16347;53.232;6.556;2022-07-29T03:37:04;101813.69;;;23.89;41.79
29359;BME280;16347;53.232;6.556;2022-07-29T03:39:36;101819.44;;;23.87;41.48
29359;BME280;16347;53.232;6.556;2022-07-29T03:42:08;101823.31;;;23.86;41.81
29359;BME280;16347;53.232;6.556;2022-07-29T03:44:38;101811.34;;;23.86;41.63
29359;BME280;16347;53.232;6.556;2022-07-29T03:47:11;101810.50;;;23.85;41.98
29359;BME280;16347;53.232;6.556;2022-07-29T03:49:42;101804.94;;;23.85;41.65
29359;BME280;16347;53.232;6.556;2022-07-29T03:52:10;101809.03;;;23.83;41.90
29359;BME280;16347;53.232;6.556;2022-07-29T03:54:38;101805.41;;;23.82;41.93
29359;BME280;16347;53.232;6.556;2022-07-29T03:57:09;101805.41;;;23.82;41.97
29359;BME280;16347;53.232;6.556;2022-07-29T03:59:38;101803.91;;;23.80;41.94
29359;BME280;16347;53.232;6.556;2022-07-29T04:02:11;101807.31;;;23.82;42.08
29359;BME280;16347;53.232;6.556;2022-07-29T04:04:42;101802.00;;;23.80;41.54
29359;BME280;16347;53.232;6.556;2022-07-29T04:07:11;101801.34;;;23.78;41.93
29359;BME280;16347;53.232;6.556;2022-07-29T04:09:40;101803.28;;;23.78;41.85
29359;BME280;16347;53.232;6.556;2022-07-29T04:12:09;101804.38;;;23.77;42.02
29359;BME280;16347;53.232;6.556;2022-07-29T04:14:37;101799.03;;;23.75;41.73
29359;BME280;16347;53.232;6.556;2022-07-29T04:17:05;101813.53;;;23.77;42.28
29359;BME280;16347;53.232;6.556;2022-07-29T04:19:35;101815.06;;;23.73;42.03
29359;BME280;16347;53.232;6.556;2022-07-29T04:22:03;101810.13;;;23.75;42.20
29359;BME280;16347;53.232;6.556;2022-07-29T04:24:32;101815.06;;;23.73;42.12
29359;BME280;16347;53.232;6.556;2022-07-29T04:27:00;101807.59;;;23.74;42.28
29359;BME280;16347;53.232;6.556;2022-07-29T04:29:28;101810.38;;;23.74;41.98
29359;BME280;16347;53.232;6.556;2022-07-29T04:31:56;101804.81;;;23.74;42.01
29359;BME280;16347;53.232;6.556;2022-07-29T04:34:24;101805.88;;;23.73;42.29
29359;BME280;16347;53.232;6.556;2022-07-29T04:36:55;101796.47;;;23.74;42.30
29359;BME280;16347;53.232;6.556;2022-07-29T04:39:23;101800.53;;;23.71;42.06
29359;BME280;16347;53.232;6.556;2022-07-29T04:41:56;101789.44;;;23.71;42.13
29359;BME280;16347;53.232;6.556;2022-07-29T04:44:24;101796.91;;;23.71;41.80
29359;BME280;16347;53.232;6.556;2022-07-29T04:46:56;101796.91;;;23.71;41.92
29359;BME280;16347;53.232;6.556;2022-07-29T04:49:24;101787.09;;;23.68;41.60
29359;BME280;16347;53.232;6.556;2022-07-29T04:51:54;101798.19;;;23.68;41.87
29359;BME280;16347;53.232;6.556;2022-07-29T04:54:23;101800.13;;;23.68;41.88
29359;BME280;16347;53.232;6.556;2022-07-29T04:56:52;101802.91;;;23.68;41.93
29359;BME280;16347;53.232;6.556;2022-07-29T04:59:20;101796.28;;;23.69;42.53
29359;BME280;16347;53.232;6.556;2022-07-29T05:01:48;101794.81;;;23.66;42.06
29359;BME280;16347;53.232;6.556;2022-07-29T05:04:16;101797.34;;;23.68;42.41
29359;BME280;16347;53.232;6.556;2022-07-29T05:06:45;101788.41;;;23.66;42.55
29359;BME280;16347;53.232;6.556;2022-07-29T05:09:14;101793.94;;;23.66;42.81
29359;BME280;16347;53.232;6.556;2022-07-29T05:11:42;101783.91;;;23.65;42.19
29359;BME280;16347;53.232;6.556;2022-07-29T05:14:10;101791.16;;;23.66;42.20
29359;BME280;16347;53.232;6.556;2022-07-29T05:16:40;101794.16;;;23.64;42.34
29359;BME280;16347;53.232;6.556;2022-07-29T05:19:11;101788.00;;;23.62;42.60
29359;BME280;16347;53.232;6.556;2022-07-29T05:21:44;101793.94;;;23.66;42.19
29359;BME280;16347;53.232;6.556;2022-07-29T05:24:17;101786.94;;;23.63;42.17
29359;BME280;16347;53.232;6.556;2022-07-29T05:26:48;101798.66;;;23.65;42.34
29359;BME280;16347;53.232;6.556;2022-07-29T05:29:21;101796.13;;;23.64;42.58
29359;BME280;16347;53.232;6.556;2022-07-29T05:32:11;101791.63;;;23.63;42.83
29359;BME280;16347;53.232;6.556;2022-07-29T05:34:41;101786.50;;;23.60;42.17
29359;BME280;16347;53.232;6.556;2022-07-29T05:37:19;101784.59;;;23.60;42.58
29359;BME280;16347;53.232;6.556;2022-07-29T05:39:51;101784.59;;;23.60;42.67
29359;BME280;16347;53.232;6.556;2022-07-29T05:42:26;101780.09;;;23.59;42.42
29359;BME280;16347;53.232;6.556;2022-07-29T05:44:55;101783.75;;;23.60;42.22
29359;BME280;16347;53.232;6.556;2022-07-29T05:47:25;101786.28;;;23.61;42.58
29359;BME280;16347;53.232;6.556;2022-07-29T05:49:55;101790.97;;;23.61;42.14
29359;BME280;16347;53.232;6.556;2022-07-29T05:52:28;101792.91;;;23.60;42.15
29359;BME280;16347;53.232;6.556;2022-07-29T05:55:01;101788.19;;;23.61;42.29
29359;BME280;16347;53.232;6.556;2022-07-29T05:57:37;101792.91;;;23.60;42.30
29359;BME280;16347;53.232;6.556;2022-07-29T06:00:09;101808.50;;;23.61;42.53
29359;BME280;16347;53.232;6.556;2022-07-29T06:02:41;101798.81;;;23.77;42.18
29359;BME280;16347;53.232;6.556;2022-07-29T06:05:13;101798.47;;;23.60;42.41
29359;BME280;16347;53.232;6.556;2022-07-29T06:07:45;101797.63;;;23.60;42.48
29359;BME280;16347;53.232;6.556;2022-07-29T06:10:19;101804.56;;;23.75;42.05
29359;BME280;16347;53.232;6.556;2022-07-29T06:12:52;101812.34;;;23.60;42.39
29359;BME280;16347;53.232;6.556;2022-07-29T06:15:19;101803.66;;;23.50;42.16
29359;BME280;16347;53.232;6.556;2022-07-29T06:17:48;101809.66;;;23.40;42.24
29359;BME280;16347;53.232;6.556;2022-07-29T06:20:27;101814.34;;;23.40;42.19
29359;BME280;16347;53.232;6.556;2022-07-29T06:22:57;101810.28;;;23.36;42.30
29359;BME280;16347;53.232;6.556;2022-07-29T06:25:27;101808.13;;;23.38;44.33
29359;BME280;16347;53.232;6.556;2022-07-29T06:27:57;101819.69;;;23.41;45.46
29359;BME280;16347;53.232;6.556;2022-07-29T06:30:25;101809.84;;;23.45;45.70
29359;BME280;16347;53.232;6.556;2022-07-29T06:32:53;101812.81;;;23.50;44.95
29359;BME280;16347;53.232;6.556;2022-07-29T06:35:21;101812.59;;;23.52;44.86
29359;BME280;16347;53.232;6.556;2022-07-29T06:38:08;101809.19;;;23.57;44.57
29359;BME280;16347;53.232;6.556;2022-07-29T06:40:57;101804.84;;;23.61;44.29
29359;BME280;16347;53.232;6.556;2022-07-29T06:43:33;101817.88;;;23.67;43.97
29359;BME280;16347;53.232;6.556;2022-07-29T06:46:19;101819.56;;;23.68;43.90
29359;BME280;16347;53.232;6.556;2022-07-29T06:48:48;101818.69;;;23.67;43.98
29359;BME280;16347;53.232;6.556;2022-07-29T06:51:20;101822.75;;;23.71;43.69
29359;BME280;16347;53.232;6.556;2022-07-29T06:53:50;101823.84;;;23.70;43.52
29359;BME280;16347;53.232;6.556;2022-07-29T06:56:30;101826.38;;;23.72;43.72
29359;BME280;16347;53.232;6.556;2022-07-29T06:59:06;101817.84;;;23.73;43.93
29359;BME280;16347;53.232;6.556;2022-07-29T07:01:35;101830.19;;;23.77;43.28
29359;BME280;16347;53.232;6.556;2022-07-29T07:04:04;101830.19;;;23.77;43.71
29359;BME280;16347;53.232;6.556;2022-07-29T07:06:32;101817.81;;;23.80;43.43
29359;BME280;16347;53.232;6.556;2022-07-29T07:09:00;101822.25;;;23.81;43.42
29359;BME280;16347;53.232;6.556;2022-07-29T07:11:30;101818.41;;;23.82;43.37
29359;BME280;16347;53.232;6.556;2022-07-29T07:13:58;101821.19;;;23.82;43.57
29359;BME280;16347;53.232;6.556;2022-07-29T07:16:29;101829.81;;;23.74;41.87
29359;BME280;16347;53.232;6.556;2022-07-29T07:18:58;101814.94;;;23.55;42.03
29359;BME280;16347;53.232;6.556;2022-07-29T07:21:26;101822.03;;;23.44;42.23
29359;BME280;16347;53.232;6.556;2022-07-29T07:23:57;101817.56;;;23.30;42.33
29359;BME280;16347;53.232;6.556;2022-07-29T07:26:30;101818.03;;;23.14;43.22
29359;BME280;16347;53.232;6.556;2022-07-29T07:29:01;101823.41;;;23.03;43.41
29359;BME280;16347;53.232;6.556;2022-07-29T07:31:31;101821.31;;;22.85;42.80
29359;BME280;16347;53.232;6.556;2022-07-29T07:34:01;101824.53;;;22.69;43.15
29359;BME280;16347;53.232;6.556;2022-07-29T07:36:33;101829.63;;;22.65;43.30
29359;BME280;16347;53.232;6.556;2022-07-29T07:39:04;101819.41;;;22.53;43.56
29359;BME280;16347;53.232;6.556;2022-07-29T07:41:39;101820.03;;;22.48;43.91
29359;BME280;16347;53.232;6.556;2022-07-29T07:44:09;101823.22;;;22.45;44.14
29359;BME280;16347;53.232;6.556;2022-07-29T07:46:43;101817.69;;;22.38;44.08
29359;BME280;16347;53.232;6.556;2022-07-29T07:49:15;101820.03;;;22.35;43.72
29359;BME280;16347;53.232;6.556;2022-07-29T07:51:46;101820.44;;;22.32;44.29
29359;BME280;16347;53.232;6.556;2022-07-29T07:54:17;101828.09;;;22.36;44.32
29359;BME280;16347;53.232;6.556;2022-07-29T07:56:49;101831.31;;;22.27;44.54
29359;BME280;16347;53.232;6.556;2022-07-29T07:59:21;101830.25;;;22.28;44.92
29359;BME280;16347;53.232;6.556;2022-07-29T08:01:51;101834.09;;;22.33;45.09
29359;BME280;16347;53.232;6.556;2022-07-29T08:04:23;101834.94;;;22.34;45.28
29359;BME280;16347;53.232;6.556;2022-07-29T08:07:01;101831.97;;;22.42;44.91
29359;BME280;16347;53.232;6.556;2022-07-29T08:09:33;101832.41;;;22.45;44.41
29359;BME280;16347;53.232;6.556;2022-07-29T08:12:06;101827.72;;;22.39;43.92
29359;BME280;16347;53.232;6.556;2022-07-29T08:14:34;101830.06;;;22.29;44.54
29359;BME280;16347;53.232;6.556;2022-07-29T08:17:03;101830.06;;;22.29;44.16
29359;BME280;16347;53.232;6.556;2022-07-29T08:19:31;101831.75;;;22.30;44.20
29359;BME280;16347;53.232;6.556;2022-07-29T08:21:59;101833.66;;;22.36;44.17
29359;BME280;16347;53.232;6.556;2022-07-29T08:24:28;101837.28;;;22.37;45.04
29359;BME280;16347;53.232;6.556;2022-07-29T08:27:14;101833.47;;;22.38;44.92
29359;BME280;16347;53.232;6.556;2022-07-29T08:30:02;101822.81;;;22.35;44.41
29359;BME280;16347;53.232;6.556;2022-07-29T08:32:31;101831.97;;;22.29;44.34
29359;BME280;16347;53.232;6.556;2022-07-29T08:35:19;101821.94;;;22.28;44.31
29359;BME280;16347;53.232;6.556;2022-07-29T08:37:48;101834.72;;;22.22;43.64
29359;BME280;16347;53.232;6.556;2022-07-29T08:40:16;101832.16;;;22.27;44.06
29359;BME280;16347;53.232;6.556;2022-07-29T08:42:45;101827.47;;;22.21;44.47
29359;BME280;16347;53.232;6.556;2022-07-29T08:45:13;101820.22;;;22.20;44.95
29359;BME280;16347;53.232;6.556;2022-07-29T08:47:42;101822.13;;;22.26;44.84
29359;BME280;16347;53.232;6.556;2022-07-29T08:50:12;101823.66;;;22.29;44.41
29359;BME280;16347;53.232;6.556;2022-07-29T08:52:41;101824.09;;;22.32;43.72
29359;BME280;16347;53.232;6.556;2022-07-29T08:55:10;101817.88;;;22.37;43.33
29359;BME280;16347;53.232;6.556;2022-07-29T08:57:38;101822.81;;;22.41;44.24
29359;BME280;16347;53.232;6.556;2022-07-29T09:00:19;101817.44;;;22.46;44.15
29359;BME280;16347;53.232;6.556;2022-07-29T09:02:53;101814.28;;;22.49;43.88
29359;BME280;16347;53.232;6.556;2022-07-29T09:05:24;101815.13;;;22.50;43.54
29359;BME280;16347;53.232;6.556;2022-07-29T09:07:53;101815.09;;;22.57;44.01
29359;BME280;16347;53.232;6.556;2022-07-29T09:10:21;101809.34;;;22.65;43.09
29359;BME280;16347;53.232;6.556;2022-07-29T09:12:50;101810.00;;;22.67;43.41
29359;BME280;16347;53.232;6.556;2022-07-29T09:15:20;101811.94;;;22.73;43.55
29359;BME280;16347;53.232;6.556;2022-07-29T09:17:49;101818.31;;;22.80;43.25
29359;BME280;16347;53.232;6.556;2022-07-29T09:20:19;101818.13;;;22.81;43.95
29359;BME280;16347;53.232;6.556;2022-07-29T09:22:48;101812.56;;;22.88;43.51
29359;BME280;16347;53.232;6.556;2022-07-29T09:25:32;101820.66;;;22.96;43.01
29359;BME280;16347;53.232;6.556;2022-07-29T09:28:07;101812.53;;;22.94;43.53
29359;BME280;16347;53.232;6.556;2022-07-29T09:30:43;101816.59;;;22.92;43.76
29359;BME280;16347;53.232;6.556;2022-07-29T09:33:18;101809.56;;;22.96;43.81
29359;BME280;16347;53.232;6.556;2022-07-29T09:35:57;101805.72;;;22.90;43.96
29359;BME280;16347;53.232;6.556;2022-07-29T09:38:27;101813.41;;;22.95;43.39
29359;BME280;16347;53.232;6.556;2022-07-29T09:40:59;101808.47;;;22.97;43.40
29359;BME280;16347;53.232;6.556;2022-07-29T09:43:32;101809.56;;;22.96;43.20
29359;BME280;16347;53.232;6.556;2022-07-29T09:46:11;101809.13;;;22.99;42.97
29359;BME280;16347;53.232;6.556;2022-07-29T09:48:39;101809.16;;;22.92;43.44
29359;BME280;16347;53.232;6.556;2022-07-29T09:51:16;101812.97;;;22.91;42.86
29359;BME280;16347;53.232;6.556;2022-07-29T09:53:49;101811.50;;;22.89;43.23
29359;BME280;16347;53.232;6.556;2022-07-29T09:56:19;101818.72;;;22.90;43.45
29359;BME280;16347;53.232;6.556;2022-07-29T09:59:04;101816.16;;;22.95;43.03
29359;BME280;16347;53.232;6.556;2022-07-29T10:01:34;101808.28;;;22.92;43.52
29359;BME280;16347;53.232;6.556;2022-07-29T10:04:03;101811.06;;;22.92;43.88
29359;BME280;16347;53.232;6.556;2022-07-29T10:06:32;101810.00;;;22.93;43.89
29359;BME280;16347;53.232;6.556;2022-07-29T10:09:07;101815.53;;;22.99;43.49
29359;BME280;16347;53.232;6.556;2022-07-29T10:11:35;101812.09;;;22.97;43.41
29359;BME280;16347;53.232;6.556;2022-07-29T10:14:23;101816.16;;;22.95;44.05
29359;BME280;16347;53.232;6.556;2022-07-29T10:16:52;101823.63;;;22.94;43.44
29359;BME280;16347;53.232;6.556;2022-07-29T10:19:21;101804.88;;;22.96;43.36
29359;BME280;16347;53.232;6.556;2022-07-29T10:21:49;101814.69;;;22.99;43.67
29359;BME280;16347;53.232;6.556;2022-07-29T10:24:24;101811.91;;;22.99;43.52
29359;BME280;16347;53.232;6.556;2022-07-29T10:26:54;101808.88;;;23.00;44.17
29359;BME280;16347;53.232;6.556;2022-07-29T10:29:23;101800.81;;;22.99;44.35
29359;BME280;16347;53.232;6.556;2022-07-29T10:32:02;101809.75;;;23.01;44.41
29359;BME280;16347;53.232;6.556;2022-07-29T10:34:51;101802.50;;;23.07;44.13
29359;BME280;16347;53.232;6.556;2022-07-29T10:37:29;101800.56;;;23.07;43.99
29359;BME280;16347;53.232;6.556;2022-07-29T10:40:10;101802.91;;;23.04;44.02
29359;BME280;16347;53.232;6.556;2022-07-29T10:43:08;101805.69;;;23.04;44.10
29359;BME280;16347;53.232;6.556;2022-07-29T10:45:41;101804.84;;;23.03;44.61
29359;BME280;16347;53.232;6.556;2022-07-29T10:48:11;101795.00;;;23.07;44.81
29359;BME280;16347;53.232;6.556;2022-07-29T10:50:57;101792.22;;;23.14;44.89
29359;BME280;16347;53.232;6.556;2022-07-29T10:53:47;101784.75;;;23.14;44.57
29359;BME280;16347;53.232;6.556;2022-07-29T10:56:24;101783.88;;;23.14;44.26
29359;BME280;16347;53.232;6.556;2022-07-29T11:02:02;101789.00;;;23.23;44.97
29359;BME280;16347;53.232;6.556;2022-07-29T11:05:06;101784.94;;;23.19;44.77
29359;BME280;16347;53.232;6.556;2022-07-29T11:07:38;101779.56;;;23.31;44.75
29359;BME280;16347;53.232;6.556;2022-07-29T11:10:22;101787.94;;;23.18;44.89
29359;BME280;16347;53.232;6.556;2022-07-29T11:12:56;101787.31;;;23.16;45.37
29359;BME280;16347;53.232;6.556;2022-07-29T11:15:24;101790.72;;;23.18;45.46
29359;BME280;16347;53.232;6.556;2022-07-29T11:18:07;101790.50;;;23.19;45.03
29359;BME280;16347;53.232;6.556;2022-07-29T11:20:42;101792.16;;;23.33;44.66
29359;BME280;16347;53.232;6.556;2022-07-29T11:23:19;101794.34;;;23.18;45.63
29359;BME280;16347;53.232;6.556;2022-07-29T11:26:16;101786.44;;;23.22;45.67
29359;BME280;16347;53.232;6.556;2022-07-29T11:28:57;101783.69;;;23.15;45.87
29359;BME280;16347;53.232;6.556;2022-07-29T11:31:35;101791.56;;;23.18;45.80
29359;BME280;16347;53.232;6.556;2022-07-29T11:34:18;101787.28;;;23.22;45.71
29359;BME280;16347;53.232;6.556;2022-07-29T11:37:18;101795.59;;;23.29;46.38
29359;BME280;16347;53.232;6.556;2022-07-29T11:40:14;101790.44;;;23.32;46.19
29359;BME280;16347;53.232;6.556;2022-07-29T11:42:50;101793.66;;;23.29;45.91
29359;BME280;16347;53.232;6.556;2022-07-29T11:45:25;101789.59;;;23.32;45.12
29359;BME280;16347;53.232;6.556;2022-07-29T11:48:17;101792.53;;;23.37;45.65
29359;BME280;16347;53.232;6.556;2022-07-29T11:50:57;101787.22;;;23.42;45.38
29359;BME280;16347;53.232;6.556;2022-07-29T11:53:26;101774.13;;;23.56;45.32
29359;BME280;16347;53.232;6.556;2022-07-29T11:56:00;101780.28;;;23.64;45.53
29359;BME280;16347;53.232;6.556;2022-07-29T11:58:29;101775.94;;;23.75;45.47
29359;BME280;16347;53.232;6.556;2022-07-29T12:00:59;101775.25;;;23.86;45.48
29359;BME280;16347;53.232;6.556;2022-07-29T12:03:47;101773.69;;;23.96;44.87
29359;BME280;16347;53.232;6.556;2022-07-29T12:06:16;101770.16;;;24.08;45.48
29359;BME280;16347;53.232;6.556;2022-07-29T12:08:48;101771.25;;;24.13;45.28
29359;BME280;16347;53.232;6.556;2022-07-29T12:11:16;101776.50;;;24.21;45.02
29359;BME280;16347;53.232;6.556;2022-07-29T12:13:47;101766.38;;;24.33;45.10
29359;BME280;16347;53.232;6.556;2022-07-29T12:16:16;101765.06;;;24.36;44.53
29359;BME280;16347;53.232;6.556;2022-07-29T12:18:59;101760.22;;;24.49;44.37
29359;BME280;16347;53.232;6.556;2022-07-29T12:21:29;101759.09;;;24.57;44.09
29359;BME280;16347;53.232;6.556;2022-07-29T12:23:59;101757.31;;;24.63;43.43
29359;BME280;16347;53.232;6.556;2022-07-29T12:26:48;101758.72;;;24.72;43.18
29359;BME280;16347;53.232;6.556;2022-07-29T12:29:20;101757.53;;;24.61;43.94
29359;BME280;16347;53.232;6.556;2022-07-29T12:32:02;101761.34;;;24.67;43.49
29359;BME280;16347;53.232;6.556;2022-07-29T12:34:45;101757.72;;;24.66;43.27
29359;BME280;16347;53.232;6.556;2022-07-29T12:37:16;101757.81;;;24.78;42.94
29359;BME280;16347;53.232;6.556;2022-07-29T12:39:49;101749.56;;;24.89;42.71
29359;BME280;16347;53.232;6.556;2022-07-29T12:42:17;101742.47;;;24.93;42.38
29359;BME280;16347;53.232;6.556;2022-07-29T12:44:50;101750.13;;;24.98;41.64
29359;BME280;16347;53.232;6.556;2022-07-29T12:47:19;101748.41;;;24.97;41.18
29359;BME280;16347;53.232;6.556;2022-07-29T12:49:48;101749.50;;;24.96;41.28
29359;BME280;16347;53.232;6.556;2022-07-29T12:52:27;101752.19;;;25.02;41.35
29359;BME280;16347;53.232;6.556;2022-07-29T12:54:57;101742.59;;;24.98;41.33
29359;BME280;16347;53.232;6.556;2022-07-29T12:57:25;101750.28;;;25.03;41.77
29359;BME280;16347;53.232;6.556;2022-07-29T13:00:03;101742.84;;;25.15;42.18
29359;BME280;16347;53.232;6.556;2022-07-29T13:02:32;101742.63;;;25.17;41.56
29359;BME280;16347;53.232;6.556;2022-07-29T13:05:04;101742.53;;;25.23;41.18
29359;BME280;16347;53.232;6.556;2022-07-29T13:07:34;101743.03;;;25.32;40.93
29359;BME280;16347;53.232;6.556;2022-07-29T13:10:24;101734.38;;;25.40;40.18
29359;BME280;16347;53.232;6.556;2022-07-29T13:13:06;101739.56;;;25.55;39.91
29359;BME280;16347;53.232;6.556;2022-07-29T13:15:35;101737.16;;;25.58;39.25
29359;BME280;16347;53.232;6.556;2022-07-29T13:18:04;101734.88;;;25.55;39.53
29359;BME280;16347;53.232;6.556;2022-07-29T13:20:33;101736.69;;;25.61;38.87
29359;BME280;16347;53.232;6.556;2022-07-29T13:23:01;101728.47;;;25.66;39.21
29359;BME280;16347;53.232;6.556;2022-07-29T13:25:32;101730.56;;;25.71;38.70